Castlegar/West Kootenay Regional Airport
CYCG : now visible

Airfield :











YOU CAN JOIN US ON...

 
LOGIN :

Register | Disclaimer

   EN    FR    IT 

 









Legend :    VFR   Marginal VFR   IFR   Intensive IFR   Very Intensive IFR
Visi :
Ceiling :
>= 8 km
>= 3000ft
5 to 8 km
1000 to 3000 ft
1500m to 5 km
500 to 1000 ft
800 to 1500m
200 to 500 ft
< 800m
< 200 ft
Symbols :   Thunderstorms  Fog  Heavy snow  Heavy precipitations  Wind > 20 kt






- Airport Elevation : 1624 ft
- IATA code : YCG


CYCG - Castlegar/West Kootenay Regional

CURRENT METAR :
  • 221400Z VRB05KT 15SM FEW120 SCT220 05/M00 A2978 RMK AC2CI2 SLP091

EXPIRED METARs :
  • 221300Z 00000KT 15SM FEW120 FEW220 05/M01 A2976 RMK AC1CI1 CI TR SLP081

TAF TAF CYCG
Valid from the 22 at 15:00 until the 23 at 03:00 UTC


221438Z 2215/2303 VRB03KT P6SM FEW070 SCT140 BKN240
BECMG 2216/2218 35007KT
FM222000 35010KT P6SM SCT070 BKN130 RMK NXT FCST BY 221900Z
CZVR FIR / North America



MET'MAP, your aeronautical weather chart ! - Copyright ORBIFLY December 2007 - Disclaimer

ORBIFLY MET'MAP TEAM :

Programming & Development : Alexandra Zaïnal
Concept & original design : Baudouin d'Aumeries
Assistance for programming : Marc-Olivier Méhu
Technical & hardware support : Manuel Goepfert

Contact : metmap@orbifly.com




SOURCES & CREDITS :

   NOAA       Earth
Advisory